createdAt,value
2019-03-04T00:01:04.837Z,10.30
2019-03-04T00:03:35.262Z,10.30
2019-03-04T00:06:03.005Z,10.30
2019-03-04T00:08:32.974Z,10.20
2019-03-04T00:11:00.945Z,10.20
2019-03-04T00:13:28.817Z,10.20
2019-03-04T00:15:56.606Z,10.20
2019-03-04T00:18:24.377Z,10.20
2019-03-04T00:20:52.225Z,10.20
2019-03-04T00:23:19.759Z,10.20
2019-03-04T00:25:47.430Z,10.20
2019-03-04T00:28:15.135Z,10.20
2019-03-04T00:30:42.641Z,10.20
2019-03-04T00:33:10.125Z,10.10
2019-03-04T00:35:37.585Z,10.20
2019-03-04T00:38:05.222Z,10.20
2019-03-04T00:40:32.905Z,10.20
2019-03-04T00:43:00.656Z,10.20
2019-03-04T00:45:28.034Z,10.30
2019-03-04T00:47:55.644Z,10.30
2019-03-04T00:50:23.597Z,10.40
2019-03-04T00:52:51.164Z,10.40
2019-03-04T00:55:19.058Z,10.50
2019-03-04T00:57:46.924Z,10.50
2019-03-04T01:00:17.944Z,10.50
2019-03-04T01:02:45.714Z,10.50
2019-03-04T01:05:13.526Z,10.50
2019-03-04T01:07:42.524Z,10.60
2019-03-04T01:10:12.503Z,10.70
2019-03-04T01:12:40.208Z,10.70
2019-03-04T01:15:10.420Z,10.60
2019-03-04T01:17:38.189Z,10.60
2019-03-04T01:20:06.932Z,10.60
2019-03-04T01:22:34.377Z,10.60
2019-03-04T01:25:01.865Z,10.60
2019-03-04T01:27:29.523Z,10.60
2019-03-04T01:29:57.093Z,10.70
2019-03-04T01:32:24.766Z,10.70
2019-03-04T01:34:52.845Z,10.80
2019-03-04T01:37:20.304Z,10.80
2019-03-04T01:39:48.038Z,10.80
2019-03-04T01:42:15.804Z,10.80
2019-03-04T01:44:43.516Z,10.80
2019-03-04T01:47:11.170Z,10.80
2019-03-04T01:49:38.896Z,10.70
2019-03-04T01:52:06.603Z,10.70
2019-03-04T01:54:34.167Z,10.60
2019-03-04T01:57:01.564Z,10.60
2019-03-04T01:59:29.466Z,10.50
2019-03-04T02:01:57.598Z,10.50
2019-03-04T02:04:26.226Z,10.50
2019-03-04T02:06:56.056Z,10.50
2019-03-04T02:09:24.023Z,10.40
2019-03-04T02:11:51.750Z,10.40
2019-03-04T02:14:19.816Z,10.50
2019-03-04T02:16:47.586Z,10.50
2019-03-04T02:19:15.277Z,10.40
2019-03-04T02:21:43.116Z,10.50
2019-03-04T02:24:36.471Z,10.50
2019-03-04T02:27:04.354Z,10.50
2019-03-04T02:29:32.510Z,10.50
2019-03-04T02:32:00.451Z,10.50
2019-03-04T02:34:28.313Z,10.60
2019-03-04T02:36:56.214Z,10.80
2019-03-04T02:39:23.948Z,10.70
2019-03-04T02:41:52.008Z,10.80
2019-03-04T02:44:20.029Z,10.80
2019-03-04T02:46:47.798Z,10.80
2019-03-04T02:49:16.335Z,10.80
2019-03-04T02:51:44.186Z,10.80
2019-03-04T02:54:11.942Z,10.80
2019-03-04T02:56:39.386Z,10.90
2019-03-04T02:59:07.647Z,11.00
2019-03-04T03:01:35.852Z,11.00
2019-03-04T03:04:03.915Z,11.10
2019-03-04T03:06:31.706Z,11.10
2019-03-04T03:08:59.759Z,11.10
2019-03-04T03:11:27.712Z,11.10
2019-03-04T03:13:55.135Z,11.10
2019-03-04T03:16:23.485Z,11.10
2019-03-04T03:18:51.108Z,11.10
2019-03-04T03:21:18.930Z,11.10
2019-03-04T03:23:47.179Z,11.20
2019-03-04T03:26:15.006Z,11.20
2019-03-04T03:28:41.789Z,11.20
2019-03-04T03:31:09.393Z,11.30
2019-03-04T03:33:37.273Z,11.30
2019-03-04T03:36:05.001Z,11.30
2019-03-04T03:38:32.750Z,11.30
2019-03-04T03:41:00.286Z,11.30
2019-03-04T03:43:28.243Z,11.30
2019-03-04T03:45:56.056Z,11.30
2019-03-04T03:48:23.517Z,11.30
2019-03-04T03:50:52.075Z,11.30
2019-03-04T03:53:22.076Z,11.30
2019-03-04T03:55:50.402Z,11.40
2019-03-04T03:58:18.503Z,11.30
2019-03-04T04:00:45.883Z,11.30
2019-03-04T04:03:13.577Z,11.30
2019-03-04T04:05:41.461Z,11.40
2019-03-04T04:08:09.336Z,11.40
2019-03-04T04:10:37.116Z,11.40
2019-03-04T04:13:04.685Z,11.30
2019-03-04T04:15:32.478Z,11.30
2019-03-04T04:18:00.023Z,11.30
2019-03-04T04:20:27.920Z,11.30
2019-03-04T04:22:55.587Z,11.30
2019-03-04T04:25:23.178Z,11.30
2019-03-04T04:27:51.995Z,11.30
2019-03-04T04:30:21.533Z,11.30
2019-03-04T04:32:49.365Z,11.30
2019-03-04T04:35:17.284Z,11.30
2019-03-04T04:37:45.936Z,11.30
2019-03-04T04:40:13.990Z,11.30
2019-03-04T04:42:42.052Z,11.40
2019-03-04T04:45:14.544Z,11.30
2019-03-04T04:47:42.418Z,11.30
2019-03-04T04:50:12.121Z,11.40
2019-03-04T05:03:25.029Z,11.40
2019-03-04T05:05:53.195Z,11.50
2019-03-04T05:08:21.149Z,11.40
2019-03-04T05:10:49.395Z,11.50
2019-03-04T05:13:17.112Z,11.50
2019-03-04T05:15:44.717Z,11.40
2019-03-04T05:18:12.489Z,11.40
2019-03-04T05:20:40.197Z,11.40
2019-03-04T05:23:07.940Z,11.40
2019-03-04T05:25:35.375Z,11.30
2019-03-04T05:28:03.223Z,11.40
2019-03-04T05:30:30.956Z,11.40
2019-03-04T05:32:58.548Z,11.30
2019-03-04T05:35:26.151Z,11.40
2019-03-04T05:37:54.239Z,11.40
2019-03-04T05:40:22.479Z,11.40
2019-03-04T05:42:50.647Z,11.50
2019-03-04T05:45:18.667Z,11.50
2019-03-04T05:47:46.356Z,11.50
2019-03-04T05:50:14.703Z,11.40
2019-03-04T05:52:42.523Z,11.50
2019-03-04T05:55:11.876Z,11.40
2019-03-04T05:57:39.816Z,11.50
2019-03-04T06:00:11.708Z,11.50
2019-03-04T06:02:39.366Z,11.50
2019-03-04T06:05:06.966Z,11.50
2019-03-04T06:07:49.894Z,11.50
2019-03-04T06:10:17.662Z,11.50
2019-03-04T06:12:45.151Z,11.50
2019-03-04T06:15:14.862Z,11.50
2019-03-04T06:17:42.884Z,11.50
2019-03-04T06:20:11.593Z,11.50
2019-03-04T06:22:39.253Z,11.50
2019-03-04T06:25:09.327Z,11.50
2019-03-04T06:27:36.777Z,11.50
2019-03-04T06:30:04.279Z,11.50
2019-03-04T06:32:33.416Z,11.50
2019-03-04T06:35:00.726Z,11.60
2019-03-04T06:37:28.255Z,11.60
2019-03-04T06:39:56.069Z,11.60
2019-03-04T06:42:26.552Z,11.50
2019-03-04T06:44:54.425Z,11.60
2019-03-04T06:47:22.590Z,11.60
2019-03-04T06:49:50.085Z,11.60
2019-03-04T06:52:17.827Z,11.60
2019-03-04T06:55:17.461Z,11.60
2019-03-04T06:57:49.807Z,11.60
2019-03-04T07:00:27.971Z,11.70
2019-03-04T07:02:55.924Z,11.70
2019-03-04T07:05:47.593Z,11.80
2019-03-04T07:08:59.614Z,11.80
2019-03-04T07:11:27.465Z,11.70
2019-03-04T07:13:54.968Z,11.80
2019-03-04T07:16:22.753Z,11.80
2019-03-04T07:18:50.476Z,11.80
2019-03-04T07:21:18.245Z,11.80
2019-03-04T07:23:45.825Z,11.70
2019-03-04T07:26:15.028Z,11.80
2019-03-04T07:28:49.967Z,11.80
2019-03-04T07:31:17.700Z,11.90
2019-03-04T07:33:46.539Z,11.90
2019-03-04T07:36:16.081Z,12.00
2019-03-04T07:38:59.887Z,12.00
2019-03-04T07:41:29.908Z,12.00
2019-03-04T07:43:58.142Z,12.00
2019-03-04T07:46:31.030Z,12.00
2019-03-04T07:48:59.116Z,12.00
2019-03-04T07:51:26.958Z,12.00
2019-03-04T07:53:55.103Z,12.00
2019-03-04T07:56:22.652Z,11.90
2019-03-04T07:58:51.121Z,11.90
2019-03-04T08:01:19.351Z,12.00
2019-03-04T08:03:47.176Z,12.00
2019-03-04T08:06:19.264Z,12.20
2019-03-04T08:09:21.794Z,12.40
2019-03-04T08:12:42.343Z,12.30
2019-03-04T08:15:10.956Z,12.30
2019-03-04T08:17:39.701Z,12.20
2019-03-04T08:20:10.075Z,12.20
2019-03-04T08:22:40.527Z,12.30
2019-03-04T08:25:11.435Z,12.30
2019-03-04T08:27:41.646Z,12.30
2019-03-04T08:30:13.839Z,12.30
2019-03-04T08:32:41.755Z,12.30
2019-03-04T08:35:12.824Z,12.30
2019-03-04T08:37:42.861Z,12.20
2019-03-04T08:40:11.924Z,11.40
2019-03-04T08:42:40.103Z,10.00
2019-03-04T08:45:14.198Z,9.20
2019-03-04T08:47:42.678Z,8.80
2019-03-04T08:50:12.189Z,8.50
2019-03-04T08:52:40.742Z,8.40
2019-03-04T08:55:11.758Z,8.20
2019-03-04T08:57:41.134Z,8.10
2019-03-04T09:00:20.211Z,7.90
2019-03-04T09:02:49.570Z,7.80
2019-03-04T09:05:27.080Z,7.60
2019-03-04T09:07:57.179Z,7.50
2019-03-04T09:10:30.849Z,7.40
2019-03-04T09:13:02.128Z,7.50
2019-03-04T09:15:33.587Z,7.60
2019-03-04T09:18:01.854Z,7.60
2019-03-04T09:20:30.916Z,7.60
2019-03-04T09:23:00.043Z,7.70
2019-03-04T09:25:35.305Z,7.70
2019-03-04T09:28:05.491Z,7.60
2019-03-04T09:30:38.153Z,7.70
2019-03-04T09:33:08.045Z,7.80
2019-03-04T09:35:38.388Z,7.90
2019-03-04T09:38:06.977Z,7.90
2019-03-04T09:40:35.989Z,7.90
2019-03-04T09:43:04.111Z,7.80
2019-03-04T09:45:38.806Z,7.90
2019-03-04T09:48:02.673Z,7.80
2019-03-04T09:50:31.118Z,7.90
2019-03-04T09:53:02.750Z,8.00
2019-03-04T09:55:31.415Z,8.40
2019-03-04T09:58:01.113Z,8.60
2019-03-04T10:00:56.579Z,8.80
2019-03-04T10:03:51.431Z,8.90
2019-03-04T10:07:13.214Z,8.90
2019-03-04T10:10:20.087Z,9.20
2019-03-04T10:13:05.469Z,9.40
2019-03-04T10:17:06.369Z,9.60
2019-03-04T10:19:32.340Z,9.80
2019-03-04T10:22:33.227Z,9.70
2019-03-04T10:25:36.364Z,9.50
2019-03-04T10:28:37.120Z,9.30
2019-03-04T10:31:42.610Z,9.20
2019-03-04T10:34:57.992Z,9.20
2019-03-04T10:38:09.728Z,9.10
2019-03-04T10:41:02.899Z,9.10
2019-03-04T10:44:00.622Z,9.00
2019-03-04T10:46:51.044Z,9.00
2019-03-04T10:49:23.272Z,9.00
2019-03-04T10:51:51.524Z,9.00
2019-03-04T10:54:20.895Z,9.10
2019-03-04T10:56:49.536Z,9.20
2019-03-04T10:59:19.708Z,9.30
2019-03-04T11:01:49.928Z,9.40
2019-03-04T11:04:17.252Z,9.60
2019-03-04T11:06:46.949Z,9.80
2019-03-04T11:09:15.525Z,10.20
2019-03-04T11:11:46.386Z,10.40
2019-03-04T11:14:19.323Z,10.50
2019-03-04T11:16:48.918Z,10.50
2019-03-04T11:19:18.435Z,10.30
2019-03-04T11:21:48.231Z,10.10
2019-03-04T11:24:17.414Z,10.00
2019-03-04T11:26:59.406Z,9.80
2019-03-04T11:29:28.014Z,9.40
2019-03-04T11:31:58.875Z,9.00
2019-03-04T11:34:27.342Z,8.80
2019-03-04T11:36:55.100Z,8.50
2019-03-04T11:40:04.198Z,8.00
2019-03-04T11:42:33.009Z,7.60
2019-03-04T11:45:01.291Z,7.30
2019-03-04T11:47:29.702Z,7.40
2019-03-04T11:49:58.496Z,7.40
2019-03-04T11:52:26.591Z,7.50
2019-03-04T11:54:55.342Z,7.80
2019-03-04T11:57:24.691Z,8.00
2019-03-04T11:59:53.997Z,8.20
2019-03-04T12:02:23.741Z,8.30
2019-03-04T12:04:52.887Z,8.30
2019-03-04T12:07:21.505Z,8.20
2019-03-04T12:09:49.481Z,8.10
2019-03-04T12:12:18.096Z,8.00
2019-03-04T12:14:51.172Z,7.90
2019-03-04T12:17:20.656Z,7.80
2019-03-04T12:19:49.552Z,7.70
2019-03-04T12:22:17.653Z,7.70
2019-03-04T12:24:48.055Z,7.90
2019-03-04T12:27:16.061Z,8.30
2019-03-04T12:29:45.041Z,8.50
2019-03-04T12:32:20.505Z,8.60
2019-03-04T12:34:48.914Z,8.60
2019-03-04T12:37:20.484Z,8.70
2019-03-04T12:39:51.878Z,8.80
2019-03-04T12:42:20.055Z,8.90
2019-03-04T12:44:48.347Z,8.70
2019-03-04T12:47:16.699Z,8.50
2019-03-04T12:49:45.577Z,8.80
2019-03-04T12:52:14.133Z,8.90
2019-03-04T12:54:43.058Z,8.80
2019-03-04T12:57:12.800Z,8.60
2019-03-04T12:59:42.681Z,8.60
2019-03-04T13:02:13.891Z,8.70
2019-03-04T13:04:41.912Z,8.70
2019-03-04T13:07:10.083Z,8.80
2019-03-04T13:09:38.570Z,9.10
2019-03-04T13:12:07.406Z,9.10
2019-03-04T13:14:36.402Z,8.90
2019-03-04T13:17:04.902Z,8.80
2019-03-04T13:19:33.538Z,8.60
2019-03-04T13:22:08.417Z,8.50
2019-03-04T13:24:35.331Z,8.40
2019-03-04T13:27:03.514Z,8.20
2019-03-04T13:29:33.202Z,8.20
2019-03-04T13:32:01.969Z,8.10
2019-03-04T13:34:31.352Z,7.90
2019-03-04T13:37:03.972Z,7.80
2019-03-04T13:39:34.798Z,7.80
2019-03-04T13:42:03.805Z,7.90
2019-03-04T13:44:34.793Z,8.00
2019-03-04T13:47:03.146Z,8.10
2019-03-04T13:49:31.717Z,8.10
2019-03-04T13:52:00.955Z,8.20
2019-03-04T13:54:32.064Z,8.20
2019-03-04T13:57:02.348Z,8.20
2019-03-04T13:59:30.762Z,8.20
2019-03-04T14:02:02.602Z,8.10
2019-03-04T14:04:32.030Z,8.10
2019-03-04T14:07:02.390Z,8.00
2019-03-04T14:09:30.816Z,7.80
2019-03-04T14:12:01.137Z,7.60
2019-03-04T14:14:31.694Z,7.50
2019-03-04T14:17:01.937Z,7.50
2019-03-04T14:19:31.086Z,7.40
2019-03-04T14:22:00.356Z,7.40
2019-03-04T14:24:32.575Z,7.50
2019-03-04T14:27:01.529Z,7.50
2019-03-04T14:29:32.757Z,7.50
2019-03-04T14:32:02.125Z,7.50
2019-03-04T14:34:38.007Z,7.60
2019-03-04T14:37:12.008Z,7.70
2019-03-04T14:39:42.281Z,7.70
2019-03-04T14:42:14.142Z,7.70
2019-03-04T14:44:42.414Z,7.70
2019-03-04T14:47:16.001Z,7.70
2019-03-04T14:57:20.273Z,7.60
2019-03-04T15:00:04.458Z,7.70
2019-03-04T15:02:34.174Z,7.80
2019-03-04T15:05:24.544Z,7.80
2019-03-04T15:10:41.137Z,7.70
2019-03-04T15:16:47.308Z,7.50
2019-03-04T15:19:15.590Z,7.50
2019-03-04T15:21:43.962Z,7.40
2019-03-04T15:24:12.799Z,7.40
2019-03-04T15:26:44.168Z,7.30
2019-03-04T15:29:13.040Z,7.20
2019-03-04T15:31:41.002Z,7.10
2019-03-04T15:34:09.152Z,7.00
2019-03-04T15:36:36.872Z,7.00
2019-03-04T15:39:10.548Z,7.00
2019-03-04T15:41:40.378Z,6.90
2019-03-04T15:44:08.773Z,6.90
2019-03-04T15:46:39.842Z,6.90
2019-03-04T15:49:08.270Z,6.80
2019-03-04T15:51:57.453Z,6.80
2019-03-04T15:57:21.631Z,6.80
2019-03-04T16:00:21.644Z,6.80
2019-03-04T16:02:49.834Z,6.80
2019-03-04T16:05:18.206Z,6.80
2019-03-04T16:07:46.337Z,6.80
2019-03-04T16:10:15.784Z,6.80
2019-03-04T16:12:43.830Z,6.70
2019-03-04T16:15:13.739Z,6.70
2019-03-04T16:17:42.299Z,6.70
2019-03-04T16:20:16.481Z,6.70
2019-03-04T16:22:50.448Z,6.70
2019-03-04T16:25:20.354Z,6.70
2019-03-04T16:27:51.997Z,6.70
2019-03-04T16:30:20.921Z,6.70
2019-03-04T16:32:51.390Z,6.70
2019-03-04T16:35:21.411Z,6.60
2019-03-04T16:37:49.584Z,6.60
2019-03-04T16:40:18.735Z,6.60
2019-03-04T16:42:48.016Z,6.60
2019-03-04T16:45:23.212Z,6.60
2019-03-04T16:47:53.056Z,6.50
2019-03-04T16:50:24.856Z,6.50
2019-03-04T16:52:53.254Z,6.50
2019-03-04T16:55:25.737Z,6.60
2019-03-04T16:58:01.665Z,6.60
2019-03-04T17:00:48.819Z,6.60
2019-03-04T17:03:16.734Z,6.60
2019-03-04T17:05:49.337Z,6.60
2019-03-04T17:08:20.285Z,6.60
2019-03-04T17:11:32.155Z,6.70
2019-03-04T17:13:47.180Z,6.60
2019-03-04T17:16:15.871Z,6.60
2019-03-04T17:18:45.151Z,6.50
2019-03-04T17:21:13.944Z,6.50
2019-03-04T17:34:15.665Z,6.60
2019-03-04T17:36:45.451Z,6.60
2019-03-04T17:39:16.230Z,6.70
2019-03-04T17:42:32.527Z,6.70
2019-03-04T17:45:03.512Z,6.70
2019-03-04T17:47:33.188Z,6.70
2019-03-04T17:50:02.190Z,6.70
2019-03-04T17:52:36.559Z,6.60
2019-03-04T17:55:06.832Z,6.60
2019-03-04T17:57:36.337Z,6.60
2019-03-04T18:00:08.007Z,6.50
2019-03-04T18:02:36.771Z,6.50
2019-03-04T18:05:06.336Z,6.50
2019-03-04T18:07:34.794Z,6.50
2019-03-04T18:10:09.696Z,6.50
2019-03-04T18:12:41.347Z,6.60
2019-03-04T18:15:23.453Z,6.60
2019-03-04T18:17:52.419Z,6.60
2019-03-04T18:23:49.480Z,6.60
2019-03-04T18:26:25.164Z,6.60
2019-03-04T18:36:36.280Z,6.60
2019-03-04T18:39:29.123Z,6.60
2019-03-04T18:42:41.141Z,6.70
2019-03-04T18:45:56.691Z,6.70
2019-03-04T18:48:58.230Z,6.70
2019-03-04T18:51:30.139Z,6.70
2019-03-04T18:54:06.583Z,6.70
2019-03-04T18:59:41.836Z,6.90
2019-03-04T19:02:10.705Z,6.90
2019-03-04T19:11:28.159Z,7.10
2019-03-04T19:20:14.001Z,7.20
2019-03-04T19:28:44.539Z,7.20
2019-03-04T19:31:16.577Z,7.20
2019-03-04T19:33:44.812Z,7.10
2019-03-04T19:36:14.877Z,7.20
2019-03-04T19:38:44.969Z,7.10
2019-03-04T19:41:15.586Z,7.10
2019-03-04T19:43:44.978Z,7.10
2019-03-04T19:46:53.517Z,7.10
2019-03-04T19:49:21.767Z,7.10
2019-03-04T19:55:20.047Z,7.20
2019-03-04T19:57:47.739Z,7.20
2019-03-04T20:00:16.926Z,7.20
2019-03-04T20:02:46.628Z,7.20
2019-03-04T20:05:14.640Z,7.20
2019-03-04T20:07:43.865Z,7.20
2019-03-04T20:10:12.165Z,7.20
2019-03-04T20:12:39.958Z,7.30
2019-03-04T20:15:10.008Z,7.30
2019-03-04T20:17:38.820Z,7.30
2019-03-04T20:20:08.032Z,7.30
2019-03-04T20:22:35.728Z,7.30
2019-03-04T20:25:07.014Z,7.30
2019-03-04T20:27:34.344Z,7.30
2019-03-04T20:30:04.696Z,7.30
2019-03-04T20:32:32.872Z,7.30
2019-03-04T20:35:00.469Z,7.30
2019-03-04T20:37:28.336Z,7.30
2019-03-04T20:39:56.365Z,7.30
2019-03-04T20:42:24.567Z,7.30
2019-03-04T20:44:52.417Z,7.30
2019-03-04T20:47:20.503Z,7.20
2019-03-04T20:49:48.203Z,7.20
2019-03-04T20:52:15.973Z,7.20
2019-03-04T20:54:44.045Z,7.20
2019-03-04T20:57:12.366Z,7.20
2019-03-04T20:59:40.739Z,7.20
2019-03-04T21:02:08.764Z,7.20
2019-03-04T21:04:36.431Z,7.20
2019-03-04T21:07:04.148Z,7.10
2019-03-04T21:09:32.438Z,7.10
2019-03-04T21:12:01.773Z,7.00
2019-03-04T21:14:29.204Z,7.10
2019-03-04T21:16:57.015Z,7.10
2019-03-04T21:19:24.436Z,7.00
2019-03-04T21:21:53.664Z,7.00
2019-03-04T21:24:21.295Z,7.00
2019-03-04T21:26:49.975Z,7.00
2019-03-04T21:29:30.535Z,7.00
2019-03-04T21:32:22.598Z,7.00
2019-03-04T21:35:35.926Z,7.00
2019-03-04T21:38:04.129Z,6.90
2019-03-04T21:40:40.747Z,6.90
2019-03-04T21:43:25.026Z,6.80
2019-03-04T21:46:31.162Z,6.80
2019-03-04T21:49:02.281Z,6.80
2019-03-04T21:51:44.089Z,6.80
2019-03-04T21:54:12.084Z,6.70
2019-03-04T21:57:13.236Z,6.70
2019-03-04T21:59:40.775Z,6.60
2019-03-04T22:02:15.584Z,6.60
2019-03-04T22:04:43.716Z,6.60
2019-03-04T22:07:13.155Z,6.60
2019-03-04T22:09:41.053Z,6.50
2019-03-04T22:12:12.300Z,6.50
2019-03-04T22:14:39.899Z,6.50
2019-03-04T22:17:07.288Z,6.60
2019-03-04T22:19:34.762Z,6.50
2019-03-04T22:22:02.206Z,6.50
2019-03-04T22:24:30.110Z,6.50
2019-03-04T22:26:57.597Z,6.50
2019-03-04T22:29:24.853Z,6.50
2019-03-04T22:31:52.662Z,6.50
2019-03-04T22:34:21.357Z,6.50
2019-03-04T22:36:50.238Z,6.50
2019-03-04T22:39:17.982Z,6.50
2019-03-04T22:41:47.218Z,6.50
2019-03-04T22:44:14.744Z,6.50
2019-03-04T22:46:43.608Z,6.50
2019-03-04T22:49:11.296Z,6.50
2019-03-04T22:54:27.580Z,6.40
2019-03-04T22:56:56.440Z,6.40
2019-03-04T22:59:26.402Z,6.40
2019-03-04T23:02:01.588Z,6.40
2019-03-04T23:05:04.022Z,6.40
2019-03-04T23:07:38.205Z,6.40
2019-03-04T23:10:31.824Z,6.50
2019-03-04T23:13:29.522Z,6.50
2019-03-04T23:16:00.204Z,6.50
2019-03-04T23:18:31.535Z,6.50
2019-03-04T23:20:59.770Z,6.50
2019-03-04T23:23:27.865Z,6.50
2019-03-04T23:25:56.841Z,6.50
2019-03-04T23:28:27.213Z,6.50
2019-03-04T23:30:55.507Z,6.50
2019-03-04T23:33:23.464Z,6.60
2019-03-04T23:35:52.475Z,6.50
2019-03-04T23:38:22.283Z,6.60
2019-03-04T23:40:51.407Z,6.60
2019-03-04T23:43:20.151Z,6.60
2019-03-04T23:46:12.694Z,6.70
2019-03-04T23:48:40.533Z,6.70
2019-03-04T23:51:08.448Z,6.70
2019-03-04T23:53:37.436Z,6.80
2019-03-04T23:56:05.644Z,6.80
2019-03-04T23:58:33.949Z,6.80
